.
WxDataArchive / Data Records for 2011-09-02
2011-09-01 September 2011 2011-09-03

Data Records for Friday, 02 September 2011

Time	Temp	Chill	HIndex	Humid	Dewpt	 Wind 	HiWind	WindDir	Rain 	Barom 
-----	----	-----	------	-----	-----	------	------	-------	-----	----- 
00:00	78.3	78.3	80.9	82	72.3	0	0	---	0.00	29.921 
00:05	78.3	78.3	80.9	82	72.3	0	0	---	0.00	29.921 
00:10	78.1	78.1	80.5	82	72.1	0	0	---	0.00	29.921 
00:15	78.1	78.1	80.5	82	72.1	0	0	---	0.00	29.919 
00:20	77.9	77.9	80.2	82	71.9	0	0	---	0.00	29.919 
00:25	77.9	77.9	80.2	82	71.9	0	0	---	0.00	29.919 
00:30	78.1	78.1	80.5	81	71.8	0	0	---	0.00	29.920 
00:35	78.1	78.1	80.5	81	71.8	0	0	---	0.00	29.920 
00:40	78.3	78.3	80.8	80	71.6	0	0	---	0.00	29.920 
00:45	78.6	78.6	81.4	79	71.5	0	0	---	0.00	29.920 
00:50	78.8	78.8	81.7	78	71.3	0	1	270	0.00	29.920 
00:55	79.2	79.2	82.3	77	71.3	0	1	270	0.00	29.920 
01:00	79.4	79.4	82.5	75	70.8	0	0	---	0.00	29.919 
01:05	79.8	79.8	83.1	74	70.8	0	0	---	0.00	29.919 
01:10	79.9	79.9	83.1	73	70.4	0	0	---	0.00	29.919 
01:15	80.1	80.1	83.5	73	70.6	0	1	270	0.00	29.917 
01:20	80.3	80.3	83.7	72	70.4	0	0	---	0.00	29.917 
01:25	80.7	80.7	84.3	71	70.4	0	2	270	0.00	29.917 
01:30	80.9	80.9	84.5	70	70.2	0	1	270	0.00	29.914 
01:35	80.9	80.9	84.3	69	69.8	0	1	270	0.00	29.914 
01:40	81.1	81.1	84.6	69	69.9	0	1	270	0.00	29.914 
01:45	81.1	81.1	84.6	69	69.9	0	2	270	0.00	29.914 
01:50	81.1	81.1	84.5	68	69.5	0	1	270	0.00	29.914 
01:55	81.1	81.1	84.5	68	69.5	0	2	270	0.00	29.914 
02:00	81.2	81.2	84.6	68	69.6	0	2	270	0.00	29.912 
02:05	81.2	81.2	84.5	67	69.2	0	1	270	0.00	29.912 
02:10	81.2	81.2	84.5	67	69.2	0	2	270	0.00	29.912 
02:15	81.2	81.2	84.5	67	69.2	0	3	270	0.00	29.909 
02:20	81.2	81.2	84.5	67	69.2	0	1	270	0.00	29.909 
02:25	81.1	81.1	84.3	67	69.1	0	1	270	0.00	29.909 
02:30	81.1	81.1	84.3	67	69.1	0	1	270	0.00	29.907 
02:35	80.9	80.9	84.0	67	68.9	0	1	270	0.00	29.907 
02:40	80.7	80.7	83.7	67	68.7	0	2	270	0.00	29.907 
02:45	80.7	80.7	83.7	67	68.7	0	2	270	0.00	29.904 
02:50	80.5	80.5	83.3	67	68.5	0	2	270	0.00	29.904 
02:55	80.5	80.5	83.3	67	68.5	0	2	270	0.00	29.904 
03:00	80.3	80.3	83.0	67	68.3	0	2	270	0.00	29.904 
03:05	80.3	80.3	83.0	67	68.3	0	2	270	0.00	29.904 
03:10	80.3	80.3	83.0	67	68.3	0	2	270	0.00	29.904 
03:15	80.1	80.1	82.7	67	68.1	0	1	270	0.00	29.903 
03:20	79.9	79.9	82.5	67	67.9	0	1	270	0.00	29.903 
03:25	79.9	79.9	82.5	67	67.9	0	2	270	0.00	29.903 
03:30	79.9	79.9	82.5	67	67.9	0	1	270	0.00	29.904 
03:35	79.8	79.8	82.3	67	67.8	0	1	270	0.00	29.904 
03:40	79.6	79.6	82.0	67	67.7	0	1	270	0.00	29.904 
03:45	79.6	79.6	82.0	67	67.7	0	1	270	0.00	29.900 
03:50	79.6	79.6	81.9	66	67.2	0	2	270	0.00	29.900 
03:55	79.8	79.8	82.2	66	67.4	0	1	270	0.00	29.900 
04:00	79.8	79.8	82.2	66	67.4	0	1	270	0.00	29.903 
04:05	79.6	79.6	81.9	66	67.2	0	2	270	0.00	29.903 
04:10	79.8	79.8	82.1	65	67.0	0	2	270	0.00	29.903 
04:15	79.8	79.8	82.1	65	67.0	0	2	270	0.00	29.902 
04:20	79.8	79.8	82.1	65	67.0	0	3	270	0.00	29.902 
04:25	79.8	79.8	82.1	65	67.0	0	1	270	0.00	29.902 
04:30	79.6	79.6	81.8	65	66.8	0	2	270	0.00	29.904 
04:35	79.6	79.6	81.8	65	66.8	0	2	270	0.00	29.904 
04:40	79.6	79.6	81.8	65	66.8	1	3	270	0.00	29.904 
04:45	79.6	79.6	81.8	65	66.8	1	4	270	0.00	29.908 
04:50	79.6	79.6	81.8	65	66.8	1	4	270	0.00	29.908 
04:55	79.6	79.6	81.8	65	66.8	1	4	270	0.00	29.908 
05:00	79.6	79.6	81.8	65	66.8	1	3	270	0.00	29.909 
05:05	79.4	79.4	81.6	65	66.6	1	3	270	0.00	29.909 
05:10	79.4	79.4	81.6	65	66.6	1	4	270	0.00	29.909 
05:15	79.4	79.4	81.6	65	66.6	1	3	270	0.00	29.914 
05:20	79.4	79.4	81.6	65	66.6	1	3	270	0.00	29.914 
05:25	79.4	79.4	81.5	64	66.1	1	4	270	0.00	29.914 
05:30	79.4	79.4	81.5	64	66.1	1	3	270	0.00	29.916 
05:35	79.4	79.4	81.5	64	66.1	2	4	270	0.00	29.916 
05:40	79.4	79.4	81.5	64	66.1	1	3	270	0.00	29.916 
05:45	79.2	79.2	81.2	64	65.9	2	5	270	0.00	29.924 
05:50	79.2	79.2	81.2	64	65.9	2	4	270	0.00	29.924 
05:55	79.2	79.2	81.2	64	65.9	2	5	270	0.00	29.924 
06:00	79.0	79.0	81.0	64	65.8	1	3	270	0.00	29.928 
06:05	78.8	78.8	80.8	65	66.0	1	3	270	0.00	29.928 
06:10	78.6	78.6	80.6	65	65.8	0	2	270	0.00	29.928 
06:15	78.3	78.3	80.2	66	66.0	0	1	270	0.00	29.931 
06:20	78.1	78.1	80.0	66	65.8	0	2	270	0.00	29.931 
06:25	78.1	78.1	80.0	67	66.2	1	2	270	0.00	29.931 
06:30	77.9	77.9	79.8	67	66.0	1	3	270	0.00	29.935 
06:35	77.9	77.9	79.8	67	66.0	1	2	270	0.00	29.935 
06:40	77.9	77.9	79.8	67	66.0	1	4	270	0.00	29.935 
06:45	77.9	77.9	79.8	67	66.0	1	3	270	0.00	29.931 
06:50	77.7	77.7	79.6	68	66.3	0	1	270	0.00	29.931 
06:55	77.6	77.6	79.5	68	66.2	0	1	270	0.00	29.931 
07:00	77.4	77.4	79.2	68	66.0	0	1	270	0.00	29.932 
07:05	77.2	77.2	79.0	68	65.8	0	1	270	0.00	29.932 
07:10	77.2	77.2	79.0	69	66.2	0	1	270	0.00	29.932 
07:15	77.0	77.0	78.8	69	66.0	0	1	270	0.00	29.940 
07:20	77.0	77.0	78.8	69	66.0	0	1	270	0.00	29.940 
07:25	76.8	76.8	78.6	69	65.8	0	1	270	0.00	29.940 
07:30	76.7	76.7	78.4	70	66.2	0	1	270	0.00	29.949 
07:35	76.7	76.7	78.4	70	66.2	0	1	270	0.00	29.949 
07:40	76.5	76.5	78.2	71	66.4	0	1	270	0.00	29.949 
07:45	76.5	76.5	78.2	71	66.4	0	1	270	0.00	29.951 
07:50	76.7	76.7	78.4	71	66.6	0	0	---	0.00	29.951 
07:55	76.7	76.7	78.4	71	66.6	0	0	---	0.00	29.951 
08:00	76.8	76.8	78.5	70	66.3	0	0	---	0.00	29.955 
08:05	77.0	77.0	78.8	70	66.4	0	2	270	0.00	29.955 
08:10	77.4	77.4	79.2	69	66.4	1	3	270	0.00	29.955 
08:15	77.6	77.6	79.5	69	66.6	2	3	270	0.00	29.958 
08:20	77.9	77.9	79.8	68	66.5	1	3	270	0.00	29.958 
08:25	78.1	78.1	80.1	68	66.7	1	2	270	0.00	29.958 
08:30	78.3	78.3	80.2	66	66.0	2	3	270	0.00	29.962 
08:35	78.5	78.5	80.5	66	66.2	1	3	270	0.00	29.962 
08:40	78.6	78.6	80.6	65	65.8	2	3	270	0.00	29.962 
08:45	79.0	79.0	81.0	65	66.2	1	4	270	0.00	29.961 
08:50	79.2	79.2	81.2	64	65.9	0	2	270	0.00	29.961 
08:55	79.4	79.4	81.5	64	66.1	0	2	270	0.00	29.961 
09:00	79.8	79.8	82.1	65	67.0	0	2	270	0.00	29.981 
09:05	79.9	79.9	82.2	65	67.1	1	3	135	0.00	29.981 
09:10	79.9	79.9	82.2	65	67.1	0	1	135	0.00	29.981 
09:15	79.9	79.9	82.2	65	67.1	0	1	135	0.00	29.979 
09:20	80.1	80.1	82.6	66	67.7	1	4	112	0.00	29.979 
09:25	80.1	80.1	82.5	65	67.2	1	3	112	0.00	29.979 
09:30	80.1	80.1	82.5	65	67.2	0	1	112	0.00	29.967 
09:35	80.3	80.3	82.8	65	67.4	0	1	112	0.00	29.967 
09:40	80.5	80.5	83.1	65	67.6	0	1	112	0.00	29.967 
09:45	80.7	80.7	83.2	64	67.4	0	1	112	0.00	29.968 
09:50	81.1	81.1	84.0	65	68.2	0	2	112	0.00	29.968 
09:55	81.2	81.2	83.8	63	67.4	0	2	112	0.00	29.968 
10:00	81.4	81.4	84.1	63	67.6	0	1	112	0.00	29.956 
10:05	81.8	81.8	84.7	63	67.9	0	1	112	0.00	29.956 
10:10	82.2	82.2	84.9	61	67.4	0	2	112	0.00	29.956 
10:15	82.6	82.6	85.7	62	68.2	0	2	112	0.00	29.963 
10:20	83.0	83.0	85.7	59	67.2	1	3	270	0.00	29.963 
10:25	83.4	83.4	86.3	59	67.5	0	1	270	0.00	29.963 
10:30	84.0	84.0	87.0	58	67.6	1	2	270	0.00	29.951 
10:35	84.5	84.5	87.3	56	67.0	1	2	270	0.00	29.951 
10:40	85.1	85.1	87.7	54	66.6	0	1	270	0.00	29.951 
10:45	85.9	85.9	88.9	54	67.3	0	0	---	0.00	29.954 
10:50	86.3	86.3	88.9	52	66.6	1	2	270	0.00	29.954 
10:55	86.7	86.7	89.6	52	66.9	0	2	270	0.00	29.954 
11:00	87.4	87.4	90.4	51	67.0	1	4	270	0.00	29.947 
11:05	87.4	87.4	90.1	50	66.4	2	3	292	0.00	29.947 
11:10	87.6	87.6	90.7	51	67.2	1	4	270	0.00	29.947 
11:15	88.0	88.0	90.7	49	66.4	2	5	270	0.00	29.940 
11:20	88.2	88.2	91.4	50	67.2	2	5	270	0.00	29.940 
11:25	88.6	88.6	91.3	48	66.4	1	3	270	0.00	29.940 
11:30	89.0	89.0	91.6	47	66.1	3	4	270	0.00	29.939 
11:35	89.5	89.5	92.4	47	66.6	2	5	270	0.00	29.939 
11:40	90.1	90.1	93.1	46	66.5	1	3	270	0.00	29.939 
11:45	90.5	90.5	93.8	46	66.8	2	5	292	0.00	29.932 
11:50	91.0	91.0	93.4	43	65.4	2	6	270	0.00	29.932 
11:55	91.2	91.2	93.7	43	65.5	3	7	270	0.00	29.932 
12:00	91.4	91.4	94.5	44	66.4	2	7	270	0.00	29.931 
12:05	92.1	92.1	95.2	43	66.3	3	5	270	0.00	29.931 
12:10	92.5	92.5	95.5	42	66.0	3	5	270	0.00	29.931 
12:15	92.7	92.7	95.4	41	65.5	2	6	270	0.00	29.924 
12:20	93.2	93.2	95.8	40	65.2	2	5	270	0.00	29.924 
12:25	92.7	92.7	95.4	41	65.5	2	6	270	0.00	29.924 
12:30	92.7	92.7	94.9	40	64.8	2	6	270	0.00	29.925 
12:35	92.9	92.9	95.7	41	65.7	3	7	270	0.00	29.925 
12:40	93.4	93.4	95.7	39	64.7	2	6	270	0.00	29.925 
12:45	94.0	94.0	97.2	40	65.9	2	4	270	0.00	29.927 
12:50	94.9	94.9	97.3	37	64.5	2	6	248	0.00	29.927 
12:55	95.1	95.1	97.1	36	63.9	3	4	270	0.00	29.927 
13:00	94.7	94.7	97.4	38	65.1	2	4	292	0.00	29.927 
13:05	94.5	94.5	96.6	37	64.1	3	7	270	0.00	29.927 
13:10	94.3	94.3	96.7	38	64.7	2	5	270	0.00	29.927 
13:15	94.5	94.5	96.6	37	64.1	3	5	270	0.00	29.924 
13:20	94.5	94.5	96.6	37	64.1	3	7	270	0.00	29.924 
13:25	94.3	94.3	96.3	37	64.0	3	6	270	0.00	29.924 
13:30	94.3	94.3	96.7	38	64.7	3	5	270	0.00	29.921 
13:35	94.5	94.5	96.1	36	63.4	3	7	270	0.00	29.921 
13:40	94.9	94.9	96.3	35	62.9	3	8	270	0.00	29.921 
13:45	95.1	95.1	96.2	34	62.3	4	9	270	0.00	29.917 
13:50	95.4	95.4	97.2	35	63.3	4	6	270	0.00	29.917 
13:55	95.4	95.4	97.2	35	63.3	4	9	270	0.00	29.917 
14:00	95.4	95.4	96.7	34	62.5	5	9	270	0.00	29.917 
14:05	95.6	95.6	97.5	35	63.5	4	9	270	0.00	29.917 
14:10	95.9	95.9	97.5	34	63.0	4	10	270	0.00	29.917 
14:15	96.1	96.1	97.4	33	62.3	3	9	270	0.00	29.912 
14:20	96.3	96.3	97.7	33	62.5	3	9	270	0.00	29.912 
14:25	96.8	96.8	98.5	33	62.9	3	7	270	0.00	29.912 
14:30	96.8	96.8	98.5	33	62.9	3	6	270	0.00	29.906 
14:35	97.1	97.1	99.5	34	64.0	3	6	270	0.00	29.906 
14:40	97.1	97.1	99.0	33	63.1	3	5	270	0.00	29.906 
14:45	97.1	97.1	98.0	31	61.4	3	9	270	0.00	29.904 
14:50	97.3	97.3	98.3	31	61.5	3	6	270	0.00	29.904 
14:55	97.5	97.5	98.7	31	61.7	3	7	270	0.00	29.904 
15:00	97.5	97.5	98.7	31	61.7	3	7	270	0.00	29.897 
15:05	97.5	97.5	98.7	31	61.7	2	6	292	0.00	29.897 
15:10	97.8	97.8	99.2	31	62.0	3	6	270	0.00	29.897 
15:15	97.8	97.8	99.2	31	62.0	2	5	270	0.00	29.893 
15:20	98.2	98.2	99.3	30	61.4	1	3	270	0.00	29.893 
15:25	98.2	98.2	99.3	30	61.4	3	7	270	0.00	29.893 
15:30	98.0	98.0	99.0	30	61.2	3	7	270	0.00	29.888 
15:35	98.2	98.2	99.3	30	61.4	2	4	270	0.00	29.888 
15:40	98.2	98.2	99.8	31	62.3	2	5	292	0.00	29.888 
15:45	98.2	98.2	99.8	31	62.3	2	4	292	0.00	29.880 
15:50	98.5	98.5	100.3	31	62.6	3	6	292	0.00	29.880 
15:55	98.5	98.5	100.3	31	62.6	2	4	270	0.00	29.880 
16:00	98.5	98.5	99.8	30	61.6	2	6	270	0.00	29.879 
16:05	98.2	98.2	99.3	30	61.4	3	6	270	0.00	29.879 
16:10	98.5	98.5	99.8	30	61.6	3	5	270	0.00	29.879 
16:15	98.2	98.2	100.4	32	63.2	1	3	315	0.00	29.877 
16:20	98.2	98.2	100.4	32	63.2	3	6	270	0.00	29.877 
16:25	98.0	98.0	99.5	31	62.1	2	5	292	0.00	29.877 
16:30	97.8	97.8	99.2	31	62.0	3	7	270	0.00	29.878 
16:35	97.5	97.5	99.2	32	62.6	2	4	292	0.00	29.878 
16:40	97.5	97.5	99.2	32	62.6	2	6	270	0.00	29.878 
16:45	97.8	97.8	99.7	32	62.9	2	5	270	0.00	29.880 
16:50	97.5	97.5	99.7	33	63.5	1	4	315	0.00	29.880 
16:55	98.0	98.0	100.0	32	63.0	1	4	270	0.00	29.880 
17:00	98.0	98.0	100.0	32	63.0	2	4	292	0.00	29.878 
17:05	98.0	98.0	99.5	31	62.1	3	7	270	0.00	29.878 
17:10	97.8	97.8	99.2	31	62.0	3	5	270	0.00	29.878 
17:15	97.5	97.5	98.2	30	60.8	2	6	270	0.00	29.879 
17:20	97.5	97.5	98.7	31	61.7	3	8	270	0.00	29.879 
17:25	97.3	97.3	98.3	31	61.5	1	3	270	0.00	29.879 
17:30	97.3	97.3	98.3	31	61.5	1	4	315	0.00	29.877 
17:35	97.3	97.3	98.8	32	62.4	1	3	292	0.00	29.877 
17:40	97.5	97.5	99.2	32	62.6	2	4	315	0.00	29.877 
17:45	97.3	97.3	98.3	31	61.5	1	3	315	0.00	29.877 
17:50	97.3	97.3	98.8	32	62.4	2	6	270	0.00	29.877 
17:55	97.3	97.3	98.3	31	61.5	2	4	270	0.00	29.877 
18:00	97.1	97.1	98.0	31	61.4	3	5	270	0.00	29.876 
18:05	97.1	97.1	98.0	31	61.4	1	3	270	0.00	29.876 
18:10	96.8	96.8	98.0	32	62.0	1	5	270	0.00	29.876 
18:15	96.8	96.8	98.5	33	62.9	1	2	270	0.00	29.873 
18:20	96.6	96.6	97.7	32	61.8	0	1	270	0.00	29.873 
18:25	96.6	96.6	98.2	33	62.7	0	1	270	0.00	29.873 
18:30	96.3	96.3	97.7	33	62.5	0	2	270	0.00	29.873 
18:35	96.3	96.3	98.2	34	63.3	0	3	270	0.00	29.873 
18:40	96.1	96.1	97.8	34	63.1	0	2	270	0.00	29.873 
18:45	96.1	96.1	98.3	35	64.0	0	2	270	0.00	29.875 
18:50	95.9	95.9	98.0	35	63.8	0	1	270	0.00	29.875 
18:55	95.6	95.6	97.5	35	63.5	1	2	270	0.00	29.875 
19:00	95.4	95.4	97.2	35	63.3	2	3	270	0.00	29.872 
19:05	95.1	95.1	96.7	35	63.1	1	2	270	0.00	29.872 
19:10	94.9	94.9	96.3	35	62.9	0	2	270	0.00	29.872 
19:15	94.9	94.9	96.8	36	63.7	0	1	270	0.00	29.868 
19:20	94.7	94.7	96.9	37	64.3	0	2	270	0.00	29.868 
19:25	94.5	94.5	98.1	40	66.4	1	2	270	0.00	29.868 
19:30	94.0	94.0	98.2	42	67.4	0	2	270	0.00	29.871 
19:35	93.6	93.6	98.0	43	67.7	0	2	270	0.00	29.871 
19:40	93.2	93.2	97.7	44	68.0	1	3	270	0.00	29.871 
19:45	92.7	92.7	97.3	45	68.2	1	2	270	0.00	29.875 
19:50	92.3	92.3	96.5	45	67.8	1	3	270	0.00	29.875 
19:55	91.8	91.8	96.1	46	68.0	0	2	270	0.00	29.875 
20:00	91.4	91.4	95.4	46	67.7	0	3	270	0.00	29.876 
20:05	91.2	91.2	95.5	47	68.1	1	2	270	0.00	29.876 
20:10	91.0	91.0	95.1	47	67.9	0	2	270	0.00	29.876 
20:15	90.5	90.5	94.6	48	68.1	0	1	270	0.00	29.876 
20:20	90.3	90.3	94.3	48	67.9	0	2	270	0.00	29.876 
20:25	90.1	90.1	93.9	48	67.7	0	2	270	0.00	29.876 
20:30	89.9	89.9	94.0	49	68.1	0	1	270	0.00	29.881 
20:35	89.5	89.5	93.7	50	68.4	0	1	270	0.00	29.881 
20:40	89.3	89.3	93.7	51	68.8	0	2	270	0.00	29.881 
20:45	88.8	88.8	93.2	52	68.9	0	2	270	0.00	29.884 
20:50	88.6	88.6	93.3	53	69.2	0	1	270	0.00	29.884 
20:55	88.4	88.4	92.9	53	69.1	0	1	270	0.00	29.884 
21:00	88.2	88.2	92.9	54	69.4	0	1	270	0.00	29.886 
21:05	88.0	88.0	92.6	54	69.2	0	1	270	0.00	29.886 
21:10	87.8	87.8	92.2	54	69.0	0	1	270	0.00	29.886 
21:15	87.4	87.4	91.9	55	69.2	0	1	270	0.00	29.886 
21:20	87.2	87.2	91.5	55	69.0	0	0	---	0.00	29.886 
21:25	86.7	86.7	91.0	56	69.1	0	0	---	0.00	29.886 
21:30	86.5	86.5	91.0	57	69.4	0	0	---	0.00	29.889 
21:35	86.1	86.1	90.2	57	69.1	0	1	270	0.00	29.889 
21:40	85.9	85.9	90.2	58	69.4	0	1	270	0.00	29.889 
21:45	85.7	85.7	89.9	58	69.2	0	0	---	0.00	29.889 
21:50	85.5	85.5	89.8	59	69.5	0	0	---	0.00	29.889 
21:55	85.3	85.3	89.5	59	69.3	0	0	---	0.00	29.889 
22:00	85.1	85.1	89.4	60	69.6	0	0	---	0.00	29.892 
22:05	84.9	84.9	89.1	60	69.4	0	0	---	0.00	29.892 
22:10	84.5	84.5	88.7	61	69.5	0	0	---	0.00	29.892 
22:15	84.3	84.3	88.3	61	69.4	0	0	---	0.00	29.890 
22:20	84.0	84.0	88.1	62	69.5	0	0	---	0.00	29.890 
22:25	83.8	83.8	87.7	62	69.4	0	0	---	0.00	29.890 
22:30	83.6	83.6	87.4	62	69.2	0	0	---	0.00	29.891 
22:35	83.4	83.4	87.0	62	69.0	0	1	270	0.00	29.891 
22:40	83.4	83.4	87.0	62	69.0	0	1	270	0.00	29.891 
22:45	83.4	83.4	87.0	62	69.0	0	0	---	0.00	29.890 
22:50	83.4	83.4	87.0	62	69.0	0	1	270	0.00	29.890 
22:55	83.2	83.2	86.7	62	68.8	0	1	270	0.00	29.890 
23:00	83.2	83.2	86.7	62	68.8	0	1	270	0.00	29.884 
23:05	83.4	83.4	87.0	62	69.0	0	1	270	0.00	29.884 
23:10	83.2	83.2	86.5	61	68.3	0	1	270	0.00	29.884 
23:15	83.2	83.2	86.5	61	68.3	0	1	270	0.00	29.881 
23:20	83.2	83.2	86.2	60	67.8	0	1	270	0.00	29.881 
23:25	83.2	83.2	86.0	59	67.4	0	1	270	0.00	29.881 
23:30	83.2	83.2	86.0	59	67.4	0	1	270	0.00	29.885 
23:35	83.2	83.2	86.0	59	67.4	0	1	270	0.00	29.885 
23:40	83.0	83.0	85.5	58	66.7	0	1	270	0.00	29.885 
23:45	83.0	83.0	85.5	58	66.7	0	1	270	0.00	29.882 
23:50	83.0	83.0	85.5	58	66.7	0	1	270	0.00	29.882 
23:55	83.0	83.0	85.3	57	66.2	0	1	270	0.00	29.882 

CoCoRaHS
IN-AL-39
A2 Web Hosting
Creative Commons License
GoDaddy
search engine by freefind advanced

loaded 2018-11-17 19:19:47 • last modified 2010-11-18 10:43:29
Privacy PolicyDisclaimer
• wx.awcolley.com is powered by PmWiki v.2002016 •
• all content (unless otherwise noted) © 2018 A W Colley